sensor_id;sensor_type;location;lat;lon;timestamp;P1;durP1;ratioP1;P2;durP2;ratioP2
39362;SDS011;25088;43.238;23.110;2023-04-03T00:01:04;0.20;;;0.20;;
39362;SDS011;25088;43.238;23.110;2023-04-03T00:03:30;0.20;;;0.20;;
39362;SDS011;25088;43.238;23.110;2023-04-03T00:05:55;0.20;;;0.20;;
39362;SDS011;25088;43.238;23.110;2023-04-03T00:08:21;0.28;;;0.28;;
39362;SDS011;25088;43.238;23.110;2023-04-03T00:10:47;0.20;;;0.20;;
39362;SDS011;25088;43.238;23.110;2023-04-03T00:13:13;0.20;;;0.20;;
39362;SDS011;25088;43.238;23.110;2023-04-03T00:15:39;0.30;;;0.30;;
39362;SDS011;25088;43.238;23.110;2023-04-03T00:18:05;0.20;;;0.20;;
39362;SDS011;25088;43.238;23.110;2023-04-03T00:20:31;0.20;;;0.20;;
39362;SDS011;25088;43.238;23.110;2023-04-03T00:22:58;0.22;;;0.22;;
39362;SDS011;25088;43.238;23.110;2023-04-03T00:25:23;0.20;;;0.20;;
39362;SDS011;25088;43.238;23.110;2023-04-03T00:27:48;0.20;;;0.20;;
39362;SDS011;25088;43.238;23.110;2023-04-03T00:30:15;0.30;;;0.30;;
39362;SDS011;25088;43.238;23.110;2023-04-03T00:32:43;0.30;;;0.30;;
39362;SDS011;25088;43.238;23.110;2023-04-03T00:35:08;0.20;;;0.20;;
39362;SDS011;25088;43.238;23.110;2023-04-03T00:37:34;0.30;;;0.30;;
39362;SDS011;25088;43.238;23.110;2023-04-03T00:40:00;0.30;;;0.30;;
39362;SDS011;25088;43.238;23.110;2023-04-03T00:42:26;0.30;;;0.30;;
39362;SDS011;25088;43.238;23.110;2023-04-03T00:47:23;0.30;;;0.30;;
39362;SDS011;25088;43.238;23.110;2023-04-03T00:49:50;0.30;;;0.30;;
39362;SDS011;25088;43.238;23.110;2023-04-03T00:52:17;0.20;;;0.20;;
39362;SDS011;25088;43.238;23.110;2023-04-03T00:54:46;0.30;;;0.30;;
39362;SDS011;25088;43.238;23.110;2023-04-03T00:57:13;0.30;;;0.30;;
39362;SDS011;25088;43.238;23.110;2023-04-03T00:59:47;0.30;;;0.30;;
39362;SDS011;25088;43.238;23.110;2023-04-03T01:02:17;0.20;;;0.20;;
39362;SDS011;25088;43.238;23.110;2023-04-03T01:04:43;0.20;;;0.20;;
39362;SDS011;25088;43.238;23.110;2023-04-03T01:07:14;0.30;;;0.30;;
39362;SDS011;25088;43.238;23.110;2023-04-03T01:09:43;0.20;;;0.20;;
39362;SDS011;25088;43.238;23.110;2023-04-03T01:12:23;0.30;;;0.30;;
39362;SDS011;25088;43.238;23.110;2023-04-03T01:14:54;0.20;;;0.20;;
39362;SDS011;25088;43.238;23.110;2023-04-03T01:17:28;0.30;;;0.30;;
39362;SDS011;25088;43.238;23.110;2023-04-03T01:25:21;0.20;;;0.20;;
39362;SDS011;25088;43.238;23.110;2023-04-03T01:27:47;0.25;;;0.25;;
39362;SDS011;25088;43.238;23.110;2023-04-03T01:30:12;0.25;;;0.25;;
39362;SDS011;25088;43.238;23.110;2023-04-03T01:32:41;0.30;;;0.30;;
39362;SDS011;25088;43.238;23.110;2023-04-03T01:35:08;0.30;;;0.30;;
39362;SDS011;25088;43.238;23.110;2023-04-03T01:37:35;0.30;;;0.30;;
39362;SDS011;25088;43.238;23.110;2023-04-03T01:40:01;0.20;;;0.20;;
39362;SDS011;25088;43.238;23.110;2023-04-03T01:42:26;0.30;;;0.30;;
39362;SDS011;25088;43.238;23.110;2023-04-03T01:44:52;0.20;;;0.20;;
39362;SDS011;25088;43.238;23.110;2023-04-03T01:47:17;0.30;;;0.30;;
39362;SDS011;25088;43.238;23.110;2023-04-03T01:49:43;0.20;;;0.20;;
39362;SDS011;25088;43.238;23.110;2023-04-03T01:52:08;0.20;;;0.20;;
39362;SDS011;25088;43.238;23.110;2023-04-03T01:54:34;0.30;;;0.30;;
39362;SDS011;25088;43.238;23.110;2023-04-03T01:56:59;0.30;;;0.30;;
39362;SDS011;25088;43.238;23.110;2023-04-03T01:59:25;0.30;;;0.30;;
39362;SDS011;25088;43.238;23.110;2023-04-03T02:01:50;0.30;;;0.30;;
39362;SDS011;25088;43.238;23.110;2023-04-03T02:04:15;0.30;;;0.30;;
39362;SDS011;25088;43.238;23.110;2023-04-03T02:06:41;0.30;;;0.30;;
39362;SDS011;25088;43.238;23.110;2023-04-03T02:09:06;0.30;;;0.30;;
39362;SDS011;25088;43.238;23.110;2023-04-03T02:11:32;0.20;;;0.20;;
39362;SDS011;25088;43.238;23.110;2023-04-03T02:13:58;0.30;;;0.30;;
39362;SDS011;25088;43.238;23.110;2023-04-03T02:16:23;0.30;;;0.30;;
39362;SDS011;25088;43.238;23.110;2023-04-03T02:18:49;0.30;;;0.30;;
39362;SDS011;25088;43.238;23.110;2023-04-03T02:21:15;0.30;;;0.30;;
39362;SDS011;25088;43.238;23.110;2023-04-03T02:23:40;0.30;;;0.30;;
39362;SDS011;25088;43.238;23.110;2023-04-03T02:26:10;0.20;;;0.20;;
39362;SDS011;25088;43.238;23.110;2023-04-03T02:28:37;0.30;;;0.30;;
39362;SDS011;25088;43.238;23.110;2023-04-03T02:31:03;0.30;;;0.30;;
39362;SDS011;25088;43.238;23.110;2023-04-03T02:33:31;0.30;;;0.30;;
39362;SDS011;25088;43.238;23.110;2023-04-03T02:35:58;0.30;;;0.30;;
39362;SDS011;25088;43.238;23.110;2023-04-03T02:38:25;0.30;;;0.30;;
39362;SDS011;25088;43.238;23.110;2023-04-03T02:40:50;0.30;;;0.30;;
39362;SDS011;25088;43.238;23.110;2023-04-03T02:43:17;0.30;;;0.30;;
39362;SDS011;25088;43.238;23.110;2023-04-03T02:45:42;0.30;;;0.30;;
39362;SDS011;25088;43.238;23.110;2023-04-03T02:48:08;0.30;;;0.30;;
39362;SDS011;25088;43.238;23.110;2023-04-03T02:50:34;0.30;;;0.30;;
39362;SDS011;25088;43.238;23.110;2023-04-03T02:52:59;0.30;;;0.30;;
39362;SDS011;25088;43.238;23.110;2023-04-03T02:55:25;0.25;;;0.25;;
39362;SDS011;25088;43.238;23.110;2023-04-03T02:57:51;0.30;;;0.30;;
39362;SDS011;25088;43.238;23.110;2023-04-03T03:00:16;0.20;;;0.20;;
39362;SDS011;25088;43.238;23.110;2023-04-03T03:02:42;0.30;;;0.30;;
39362;SDS011;25088;43.238;23.110;2023-04-03T03:05:07;0.20;;;0.20;;
39362;SDS011;25088;43.238;23.110;2023-04-03T03:07:33;0.30;;;0.30;;
39362;SDS011;25088;43.238;23.110;2023-04-03T03:09:59;0.30;;;0.30;;
39362;SDS011;25088;43.238;23.110;2023-04-03T03:12:24;0.20;;;0.20;;
39362;SDS011;25088;43.238;23.110;2023-04-03T03:14:50;0.25;;;0.25;;
39362;SDS011;25088;43.238;23.110;2023-04-03T03:17:15;0.20;;;0.20;;
39362;SDS011;25088;43.238;23.110;2023-04-03T03:19:41;0.22;;;0.22;;
39362;SDS011;25088;43.238;23.110;2023-04-03T03:22:07;0.20;;;0.20;;
39362;SDS011;25088;43.238;23.110;2023-04-03T03:24:32;0.30;;;0.30;;
39362;SDS011;25088;43.238;23.110;2023-04-03T03:26:58;0.30;;;0.30;;
39362;SDS011;25088;43.238;23.110;2023-04-03T03:29:23;0.30;;;0.30;;
39362;SDS011;25088;43.238;23.110;2023-04-03T03:31:48;0.30;;;0.30;;
39362;SDS011;25088;43.238;23.110;2023-04-03T03:34:14;0.20;;;0.20;;
39362;SDS011;25088;43.238;23.110;2023-04-03T03:36:40;0.30;;;0.30;;
39362;SDS011;25088;43.238;23.110;2023-04-03T03:39:06;0.20;;;0.20;;
39362;SDS011;25088;43.238;23.110;2023-04-03T03:41:31;0.20;;;0.20;;
39362;SDS011;25088;43.238;23.110;2023-04-03T03:43:57;0.30;;;0.30;;
39362;SDS011;25088;43.238;23.110;2023-04-03T03:46:22;0.30;;;0.30;;
39362;SDS011;25088;43.238;23.110;2023-04-03T03:48:48;0.22;;;0.22;;
39362;SDS011;25088;43.238;23.110;2023-04-03T03:51:13;0.28;;;0.28;;
39362;SDS011;25088;43.238;23.110;2023-04-03T03:53:39;0.30;;;0.30;;
39362;SDS011;25088;43.238;23.110;2023-04-03T03:56:05;0.30;;;0.30;;
39362;SDS011;25088;43.238;23.110;2023-04-03T03:58:31;0.20;;;0.20;;
39362;SDS011;25088;43.238;23.110;2023-04-03T04:00:59;0.30;;;0.30;;
39362;SDS011;25088;43.238;23.110;2023-04-03T04:03:26;0.30;;;0.30;;
39362;SDS011;25088;43.238;23.110;2023-04-03T04:05:51;0.30;;;0.30;;
39362;SDS011;25088;43.238;23.110;2023-04-03T04:08:17;0.30;;;0.30;;
39362;SDS011;25088;43.238;23.110;2023-04-03T04:10:42;0.30;;;0.30;;
39362;SDS011;25088;43.238;23.110;2023-04-03T04:13:08;0.20;;;0.20;;
39362;SDS011;25088;43.238;23.110;2023-04-03T04:15:33;0.30;;;0.30;;
39362;SDS011;25088;43.238;23.110;2023-04-03T04:17:58;0.30;;;0.30;;
39362;SDS011;25088;43.238;23.110;2023-04-03T04:20:24;0.30;;;0.30;;
39362;SDS011;25088;43.238;23.110;2023-04-03T04:22:50;0.20;;;0.20;;
39362;SDS011;25088;43.238;23.110;2023-04-03T04:25:15;0.20;;;0.20;;
39362;SDS011;25088;43.238;23.110;2023-04-03T04:27:40;0.30;;;0.30;;
39362;SDS011;25088;43.238;23.110;2023-04-03T04:30:06;0.30;;;0.30;;
39362;SDS011;25088;43.238;23.110;2023-04-03T04:32:32;0.30;;;0.30;;
39362;SDS011;25088;43.238;23.110;2023-04-03T04:34:58;0.30;;;0.30;;
39362;SDS011;25088;43.238;23.110;2023-04-03T04:37:23;0.20;;;0.20;;
39362;SDS011;25088;43.238;23.110;2023-04-03T04:39:49;0.30;;;0.30;;
39362;SDS011;25088;43.238;23.110;2023-04-03T04:42:14;0.30;;;0.30;;
39362;SDS011;25088;43.238;23.110;2023-04-03T04:44:40;0.30;;;0.30;;
39362;SDS011;25088;43.238;23.110;2023-04-03T04:47:06;0.20;;;0.20;;
39362;SDS011;25088;43.238;23.110;2023-04-03T04:49:31;0.25;;;0.25;;
39362;SDS011;25088;43.238;23.110;2023-04-03T04:51:57;0.30;;;0.30;;
39362;SDS011;25088;43.238;23.110;2023-04-03T04:54:22;0.30;;;0.30;;
39362;SDS011;25088;43.238;23.110;2023-04-03T04:56:47;0.20;;;0.20;;
39362;SDS011;25088;43.238;23.110;2023-04-03T04:59:13;0.20;;;0.20;;
39362;SDS011;25088;43.238;23.110;2023-04-03T05:01:38;0.20;;;0.20;;
39362;SDS011;25088;43.238;23.110;2023-04-03T05:04:04;0.20;;;0.20;;
39362;SDS011;25088;43.238;23.110;2023-04-03T05:06:30;0.20;;;0.20;;
39362;SDS011;25088;43.238;23.110;2023-04-03T05:08:57;0.20;;;0.20;;
39362;SDS011;25088;43.238;23.110;2023-04-03T05:11:22;0.20;;;0.20;;
39362;SDS011;25088;43.238;23.110;2023-04-03T05:13:49;0.20;;;0.20;;
39362;SDS011;25088;43.238;23.110;2023-04-03T05:16:14;0.20;;;0.20;;
39362;SDS011;25088;43.238;23.110;2023-04-03T05:18:40;0.20;;;0.20;;
39362;SDS011;25088;43.238;23.110;2023-04-03T05:21:05;0.20;;;0.20;;
39362;SDS011;25088;43.238;23.110;2023-04-03T05:23:31;0.20;;;0.20;;
39362;SDS011;25088;43.238;23.110;2023-04-03T05:25:56;0.20;;;0.20;;
39362;SDS011;25088;43.238;23.110;2023-04-03T05:28:22;0.20;;;0.20;;
39362;SDS011;25088;43.238;23.110;2023-04-03T05:30:54;0.20;;;0.20;;
39362;SDS011;25088;43.238;23.110;2023-04-03T05:33:20;0.20;;;0.20;;
39362;SDS011;25088;43.238;23.110;2023-04-03T05:35:46;0.20;;;0.20;;
39362;SDS011;25088;43.238;23.110;2023-04-03T05:38:12;0.20;;;0.20;;
39362;SDS011;25088;43.238;23.110;2023-04-03T05:40:37;0.20;;;0.20;;
39362;SDS011;25088;43.238;23.110;2023-04-03T05:43:03;0.10;;;0.10;;
39362;SDS011;25088;43.238;23.110;2023-04-03T05:45:29;0.20;;;0.20;;
39362;SDS011;25088;43.238;23.110;2023-04-03T05:47:54;0.20;;;0.20;;
39362;SDS011;25088;43.238;23.110;2023-04-03T05:50:20;0.10;;;0.10;;
39362;SDS011;25088;43.238;23.110;2023-04-03T05:52:46;0.10;;;0.10;;
39362;SDS011;25088;43.238;23.110;2023-04-03T05:55:14;0.10;;;0.10;;
39362;SDS011;25088;43.238;23.110;2023-04-03T05:57:40;0.10;;;0.10;;
39362;SDS011;25088;43.238;23.110;2023-04-03T06:00:07;0.10;;;0.10;;
39362;SDS011;25088;43.238;23.110;2023-04-03T06:02:37;0.10;;;0.10;;
39362;SDS011;25088;43.238;23.110;2023-04-03T06:05:03;0.10;;;0.10;;
39362;SDS011;25088;43.238;23.110;2023-04-03T06:07:29;0.10;;;0.10;;
39362;SDS011;25088;43.238;23.110;2023-04-03T06:09:56;0.10;;;0.10;;
39362;SDS011;25088;43.238;23.110;2023-04-03T06:12:22;0.05;;;0.05;;
39362;SDS011;25088;43.238;23.110;2023-04-03T06:14:48;0.10;;;0.10;;
39362;SDS011;25088;43.238;23.110;2023-04-03T06:17:14;0.10;;;0.10;;
39362;SDS011;25088;43.238;23.110;2023-04-03T06:19:41;0.10;;;0.10;;
39362;SDS011;25088;43.238;23.110;2023-04-03T06:22:07;0.10;;;0.10;;
39362;SDS011;25088;43.238;23.110;2023-04-03T06:24:32;0.00;;;0.00;;
39362;SDS011;25088;43.238;23.110;2023-04-03T06:26:58;0.10;;;0.10;;
39362;SDS011;25088;43.238;23.110;2023-04-03T06:29:24;0.10;;;0.10;;
39362;SDS011;25088;43.238;23.110;2023-04-03T06:31:50;0.10;;;0.10;;
39362;SDS011;25088;43.238;23.110;2023-04-03T06:34:15;0.10;;;0.10;;
39362;SDS011;25088;43.238;23.110;2023-04-03T06:36:42;0.00;;;0.00;;
39362;SDS011;25088;43.238;23.110;2023-04-03T06:39:13;0.05;;;0.05;;
39362;SDS011;25088;43.238;23.110;2023-04-03T06:41:40;0.00;;;0.00;;
39362;SDS011;25088;43.238;23.110;2023-04-03T06:44:06;0.00;;;0.00;;
39362;SDS011;25088;43.238;23.110;2023-04-03T06:46:35;0.00;;;0.00;;
39362;SDS011;25088;43.238;23.110;2023-04-03T06:49:02;0.00;;;0.00;;
39362;SDS011;25088;43.238;23.110;2023-04-03T06:51:28;0.00;;;0.00;;
39362;SDS011;25088;43.238;23.110;2023-04-03T06:53:55;0.00;;;0.00;;
39362;SDS011;25088;43.238;23.110;2023-04-03T06:56:22;0.00;;;0.00;;
39362;SDS011;25088;43.238;23.110;2023-04-03T06:58:48;0.00;;;0.00;;
39362;SDS011;25088;43.238;23.110;2023-04-03T07:01:14;0.00;;;0.00;;
39362;SDS011;25088;43.238;23.110;2023-04-03T07:03:41;0.00;;;0.00;;
39362;SDS011;25088;43.238;23.110;2023-04-03T07:06:09;0.00;;;0.00;;
39362;SDS011;25088;43.238;23.110;2023-04-03T07:08:39;0.00;;;0.00;;
39362;SDS011;25088;43.238;23.110;2023-04-03T07:11:05;0.00;;;0.00;;
39362;SDS011;25088;43.238;23.110;2023-04-03T07:13:31;0.00;;;0.00;;
39362;SDS011;25088;43.238;23.110;2023-04-03T07:15:57;0.00;;;0.00;;
39362;SDS011;25088;43.238;23.110;2023-04-03T07:18:23;0.00;;;0.00;;
39362;SDS011;25088;43.238;23.110;2023-04-03T07:20:49;0.00;;;0.00;;
39362;SDS011;25088;43.238;23.110;2023-04-03T07:23:15;0.00;;;0.00;;
39362;SDS011;25088;43.238;23.110;2023-04-03T07:25:44;0.00;;;0.00;;
39362;SDS011;25088;43.238;23.110;2023-04-03T07:28:11;0.00;;;0.00;;
39362;SDS011;25088;43.238;23.110;2023-04-03T07:30:46;0.00;;;0.00;;
39362;SDS011;25088;43.238;23.110;2023-04-03T07:33:15;0.00;;;0.00;;
39362;SDS011;25088;43.238;23.110;2023-04-03T07:35:42;0.00;;;0.00;;
39362;SDS011;25088;43.238;23.110;2023-04-03T07:38:08;0.00;;;0.00;;
39362;SDS011;25088;43.238;23.110;2023-04-03T07:40:35;0.00;;;0.00;;
39362;SDS011;25088;43.238;23.110;2023-04-03T07:43:01;0.00;;;0.00;;
39362;SDS011;25088;43.238;23.110;2023-04-03T07:45:27;0.00;;;0.00;;
39362;SDS011;25088;43.238;23.110;2023-04-03T07:47:53;0.00;;;0.00;;
39362;SDS011;25088;43.238;23.110;2023-04-03T07:50:19;0.00;;;0.00;;
39362;SDS011;25088;43.238;23.110;2023-04-03T07:52:44;0.00;;;0.00;;
39362;SDS011;25088;43.238;23.110;2023-04-03T07:55:11;0.00;;;0.00;;
39362;SDS011;25088;43.238;23.110;2023-04-03T07:57:36;0.00;;;0.00;;
39362;SDS011;25088;43.238;23.110;2023-04-03T08:00:05;0.00;;;0.00;;
39362;SDS011;25088;43.238;23.110;2023-04-03T08:02:31;0.00;;;0.00;;
39362;SDS011;25088;43.238;23.110;2023-04-03T08:04:57;0.05;;;0.05;;
39362;SDS011;25088;43.238;23.110;2023-04-03T08:07:23;0.00;;;0.00;;
39362;SDS011;25088;43.238;23.110;2023-04-03T08:09:50;0.00;;;0.00;;
39362;SDS011;25088;43.238;23.110;2023-04-03T08:12:15;0.00;;;0.00;;
39362;SDS011;25088;43.238;23.110;2023-04-03T08:14:41;0.00;;;0.00;;
39362;SDS011;25088;43.238;23.110;2023-04-03T08:17:06;0.00;;;0.00;;
39362;SDS011;25088;43.238;23.110;2023-04-03T08:19:34;0.00;;;0.00;;
39362;SDS011;25088;43.238;23.110;2023-04-03T08:22:00;0.00;;;0.00;;
39362;SDS011;25088;43.238;23.110;2023-04-03T08:24:28;0.00;;;0.00;;
39362;SDS011;25088;43.238;23.110;2023-04-03T08:26:54;0.00;;;0.00;;
39362;SDS011;25088;43.238;23.110;2023-04-03T08:29:19;0.00;;;0.00;;
39362;SDS011;25088;43.238;23.110;2023-04-03T08:31:46;0.00;;;0.00;;
39362;SDS011;25088;43.238;23.110;2023-04-03T08:34:11;0.08;;;0.08;;
39362;SDS011;25088;43.238;23.110;2023-04-03T08:36:38;0.00;;;0.00;;
39362;SDS011;25088;43.238;23.110;2023-04-03T08:39:03;0.00;;;0.00;;
39362;SDS011;25088;43.238;23.110;2023-04-03T08:41:31;0.00;;;0.00;;
39362;SDS011;25088;43.238;23.110;2023-04-03T08:49:49;0.00;;;0.00;;
39362;SDS011;25088;43.238;23.110;2023-04-03T08:52:19;0.00;;;0.00;;
39362;SDS011;25088;43.238;23.110;2023-04-03T08:54:52;0.00;;;0.00;;
39362;SDS011;25088;43.238;23.110;2023-04-03T08:57:25;0.00;;;0.00;;
39362;SDS011;25088;43.238;23.110;2023-04-03T08:59:51;0.00;;;0.00;;
39362;SDS011;25088;43.238;23.110;2023-04-03T09:02:31;0.00;;;0.00;;
39362;SDS011;25088;43.238;23.110;2023-04-03T09:05:06;0.00;;;0.00;;
39362;SDS011;25088;43.238;23.110;2023-04-03T09:07:43;0.00;;;0.00;;
39362;SDS011;25088;43.238;23.110;2023-04-03T09:10:23;0.00;;;0.00;;
39362;SDS011;25088;43.238;23.110;2023-04-03T09:12:59;0.00;;;0.00;;
39362;SDS011;25088;43.238;23.110;2023-04-03T09:15:32;0.00;;;0.00;;
39362;SDS011;25088;43.238;23.110;2023-04-03T09:18:15;0.00;;;0.00;;
39362;SDS011;25088;43.238;23.110;2023-04-03T09:24:10;0.00;;;0.00;;
39362;SDS011;25088;43.238;23.110;2023-04-03T09:29:24;0.00;;;0.00;;
39362;SDS011;25088;43.238;23.110;2023-04-03T09:31:52;0.00;;;0.00;;
39362;SDS011;25088;43.238;23.110;2023-04-03T09:34:26;0.00;;;0.00;;
39362;SDS011;25088;43.238;23.110;2023-04-03T09:36:55;0.00;;;0.00;;
39362;SDS011;25088;43.238;23.110;2023-04-03T09:39:24;0.00;;;0.00;;
39362;SDS011;25088;43.238;23.110;2023-04-03T09:41:58;0.00;;;0.00;;
39362;SDS011;25088;43.238;23.110;2023-04-03T09:44:29;0.00;;;0.00;;
39362;SDS011;25088;43.238;23.110;2023-04-03T09:46:57;0.00;;;0.00;;
39362;SDS011;25088;43.238;23.110;2023-04-03T09:49:23;0.00;;;0.00;;
39362;SDS011;25088;43.238;23.110;2023-04-03T09:51:49;0.00;;;0.00;;
39362;SDS011;25088;43.238;23.110;2023-04-03T09:54:31;0.00;;;0.00;;
39362;SDS011;25088;43.238;23.110;2023-04-03T09:57:05;0.00;;;0.00;;
39362;SDS011;25088;43.238;23.110;2023-04-03T09:59:33;0.00;;;0.00;;
39362;SDS011;25088;43.238;23.110;2023-04-03T10:04:42;0.00;;;0.00;;
39362;SDS011;25088;43.238;23.110;2023-04-03T10:09:54;0.00;;;0.00;;
39362;SDS011;25088;43.238;23.110;2023-04-03T10:12:22;0.00;;;0.00;;
39362;SDS011;25088;43.238;23.110;2023-04-03T10:17:26;0.00;;;0.00;;
39362;SDS011;25088;43.238;23.110;2023-04-03T10:23:13;0.00;;;0.00;;
39362;SDS011;25088;43.238;23.110;2023-04-03T10:28:47;0.00;;;0.00;;
39362;SDS011;25088;43.238;23.110;2023-04-03T10:49:41;0.00;;;0.00;;
39362;SDS011;25088;43.238;23.110;2023-04-03T10:57:57;0.00;;;0.00;;
39362;SDS011;25088;43.238;23.110;2023-04-03T11:03:17;0.00;;;0.00;;
39362;SDS011;25088;43.238;23.110;2023-04-03T11:05:49;0.00;;;0.00;;
39362;SDS011;25088;43.238;23.110;2023-04-03T11:10:51;0.00;;;0.00;;
39362;SDS011;25088;43.238;23.110;2023-04-03T11:13:24;0.00;;;0.00;;
39362;SDS011;25088;43.238;23.110;2023-04-03T11:15:57;0.00;;;0.00;;
39362;SDS011;25088;43.238;23.110;2023-04-03T11:18:35;0.00;;;0.00;;
39362;SDS011;25088;43.238;23.110;2023-04-03T11:21:12;0.00;;;0.00;;
39362;SDS011;25088;43.238;23.110;2023-04-03T11:23:43;0.00;;;0.00;;
39362;SDS011;25088;43.238;23.110;2023-04-03T11:26:14;0.00;;;0.00;;
39362;SDS011;25088;43.238;23.110;2023-04-03T11:28:42;0.00;;;0.00;;
39362;SDS011;25088;43.238;23.110;2023-04-03T11:34:02;0.00;;;0.00;;
39362;SDS011;25088;43.238;23.110;2023-04-03T11:36:44;0.00;;;0.00;;
39362;SDS011;25088;43.238;23.110;2023-04-03T11:39:24;0.00;;;0.00;;
39362;SDS011;25088;43.238;23.110;2023-04-03T11:41:53;0.00;;;0.00;;
39362;SDS011;25088;43.238;23.110;2023-04-03T11:46:58;0.00;;;0.00;;
39362;SDS011;25088;43.238;23.110;2023-04-03T12:05:49;0.00;;;0.00;;
39362;SDS011;25088;43.238;23.110;2023-04-03T12:08:21;0.00;;;0.00;;
39362;SDS011;25088;43.238;23.110;2023-04-03T12:13:37;0.00;;;0.00;;
39362;SDS011;25088;43.238;23.110;2023-04-03T12:16:04;0.00;;;0.00;;
39362;SDS011;25088;43.238;23.110;2023-04-03T12:20:57;0.00;;;0.00;;
39362;SDS011;25088;43.238;23.110;2023-04-03T12:25:50;0.00;;;0.00;;
39362;SDS011;25088;43.238;23.110;2023-04-03T12:28:17;0.00;;;0.00;;
39362;SDS011;25088;43.238;23.110;2023-04-03T12:30:43;0.00;;;0.00;;
39362;SDS011;25088;43.238;23.110;2023-04-03T12:33:31;0.00;;;0.00;;
39362;SDS011;25088;43.238;23.110;2023-04-03T12:36:11;0.00;;;0.00;;
39362;SDS011;25088;43.238;23.110;2023-04-03T12:41:50;0.00;;;0.00;;
39362;SDS011;25088;43.238;23.110;2023-04-03T12:44:40;0.00;;;0.00;;
39362;SDS011;25088;43.238;23.110;2023-04-03T12:47:25;0.00;;;0.00;;
39362;SDS011;25088;43.238;23.110;2023-04-03T12:49:54;0.00;;;0.00;;
39362;SDS011;25088;43.238;23.110;2023-04-03T12:54:51;0.00;;;0.00;;
39362;SDS011;25088;43.238;23.110;2023-04-03T12:57:19;0.00;;;0.00;;
39362;SDS011;25088;43.238;23.110;2023-04-03T12:59:52;0.00;;;0.00;;
39362;SDS011;25088;43.238;23.110;2023-04-03T13:02:26;0.00;;;0.00;;
39362;SDS011;25088;43.238;23.110;2023-04-03T13:04:55;0.00;;;0.00;;
39362;SDS011;25088;43.238;23.110;2023-04-03T13:12:44;0.00;;;0.00;;
39362;SDS011;25088;43.238;23.110;2023-04-03T13:15:20;0.00;;;0.00;;
39362;SDS011;25088;43.238;23.110;2023-04-03T13:17:47;0.00;;;0.00;;
39362;SDS011;25088;43.238;23.110;2023-04-03T13:20:23;0.00;;;0.00;;
39362;SDS011;25088;43.238;23.110;2023-04-03T13:25:23;0.00;;;0.00;;
39362;SDS011;25088;43.238;23.110;2023-04-03T13:27:51;0.00;;;0.00;;
39362;SDS011;25088;43.238;23.110;2023-04-03T13:30:37;0.00;;;0.00;;
39362;SDS011;25088;43.238;23.110;2023-04-03T13:33:04;0.00;;;0.00;;
39362;SDS011;25088;43.238;23.110;2023-04-03T13:35:36;0.00;;;0.00;;
39362;SDS011;25088;43.238;23.110;2023-04-03T13:38:27;0.00;;;0.00;;
39362;SDS011;25088;43.238;23.110;2023-04-03T13:40:55;0.00;;;0.00;;
39362;SDS011;25088;43.238;23.110;2023-04-03T13:43:24;0.00;;;0.00;;
39362;SDS011;25088;43.238;23.110;2023-04-03T13:48:22;0.00;;;0.00;;
39362;SDS011;25088;43.238;23.110;2023-04-03T13:50:52;0.00;;;0.00;;
39362;SDS011;25088;43.238;23.110;2023-04-03T13:53:24;0.00;;;0.00;;
39362;SDS011;25088;43.238;23.110;2023-04-03T13:55:53;0.00;;;0.00;;
39362;SDS011;25088;43.238;23.110;2023-04-03T13:58:25;0.03;;;0.03;;
39362;SDS011;25088;43.238;23.110;2023-04-03T14:00:59;0.00;;;0.00;;
39362;SDS011;25088;43.238;23.110;2023-04-03T14:03:51;0.00;;;0.00;;
39362;SDS011;25088;43.238;23.110;2023-04-03T14:06:20;0.00;;;0.00;;
39362;SDS011;25088;43.238;23.110;2023-04-03T14:08:47;0.00;;;0.00;;
39362;SDS011;25088;43.238;23.110;2023-04-03T14:11:14;0.00;;;0.00;;
39362;SDS011;25088;43.238;23.110;2023-04-03T14:13:44;0.00;;;0.00;;
39362;SDS011;25088;43.238;23.110;2023-04-03T14:16:15;0.00;;;0.00;;
39362;SDS011;25088;43.238;23.110;2023-04-03T14:18:44;0.00;;;0.00;;
39362;SDS011;25088;43.238;23.110;2023-04-03T14:21:11;0.00;;;0.00;;
39362;SDS011;25088;43.238;23.110;2023-04-03T14:23:38;0.00;;;0.00;;
39362;SDS011;25088;43.238;23.110;2023-04-03T14:26:07;0.00;;;0.00;;
39362;SDS011;25088;43.238;23.110;2023-04-03T14:28:36;0.00;;;0.00;;
39362;SDS011;25088;43.238;23.110;2023-04-03T14:31:02;0.00;;;0.00;;
39362;SDS011;25088;43.238;23.110;2023-04-03T14:33:27;0.03;;;0.03;;
39362;SDS011;25088;43.238;23.110;2023-04-03T14:35:56;0.00;;;0.00;;
39362;SDS011;25088;43.238;23.110;2023-04-03T14:38:25;0.00;;;0.00;;
39362;SDS011;25088;43.238;23.110;2023-04-03T14:40:54;0.00;;;0.00;;
39362;SDS011;25088;43.238;23.110;2023-04-03T14:43:20;0.00;;;0.00;;
39362;SDS011;25088;43.238;23.110;2023-04-03T14:45:47;0.10;;;0.10;;
39362;SDS011;25088;43.238;23.110;2023-04-03T14:48:21;0.10;;;0.10;;
39362;SDS011;25088;43.238;23.110;2023-04-03T14:50:50;0.10;;;0.10;;
39362;SDS011;25088;43.238;23.110;2023-04-03T14:53:16;0.10;;;0.10;;
39362;SDS011;25088;43.238;23.110;2023-04-03T14:55:46;0.10;;;0.10;;
39362;SDS011;25088;43.238;23.110;2023-04-03T14:58:13;0.10;;;0.10;;
39362;SDS011;25088;43.238;23.110;2023-04-03T15:00:40;0.10;;;0.10;;
39362;SDS011;25088;43.238;23.110;2023-04-03T15:03:06;0.10;;;0.10;;
39362;SDS011;25088;43.238;23.110;2023-04-03T15:05:35;0.10;;;0.10;;
39362;SDS011;25088;43.238;23.110;2023-04-03T15:08:02;0.10;;;0.10;;
39362;SDS011;25088;43.238;23.110;2023-04-03T15:10:28;0.10;;;0.10;;
39362;SDS011;25088;43.238;23.110;2023-04-03T15:12:55;0.10;;;0.10;;
39362;SDS011;25088;43.238;23.110;2023-04-03T15:15:21;0.10;;;0.10;;
39362;SDS011;25088;43.238;23.110;2023-04-03T15:17:52;0.10;;;0.10;;
39362;SDS011;25088;43.238;23.110;2023-04-03T15:20:20;0.10;;;0.10;;
39362;SDS011;25088;43.238;23.110;2023-04-03T15:22:48;0.10;;;0.10;;
39362;SDS011;25088;43.238;23.110;2023-04-03T15:25:14;0.10;;;0.10;;
39362;SDS011;25088;43.238;23.110;2023-04-03T15:27:40;0.10;;;0.10;;
39362;SDS011;25088;43.238;23.110;2023-04-03T15:30:07;0.10;;;0.10;;
39362;SDS011;25088;43.238;23.110;2023-04-03T15:32:36;0.10;;;0.10;;
39362;SDS011;25088;43.238;23.110;2023-04-03T15:35:01;0.10;;;0.10;;
39362;SDS011;25088;43.238;23.110;2023-04-03T15:37:27;0.10;;;0.10;;
39362;SDS011;25088;43.238;23.110;2023-04-03T15:39:53;0.10;;;0.10;;
39362;SDS011;25088;43.238;23.110;2023-04-03T15:42:18;0.10;;;0.10;;
39362;SDS011;25088;43.238;23.110;2023-04-03T15:44:44;0.10;;;0.10;;
39362;SDS011;25088;43.238;23.110;2023-04-03T15:47:09;0.10;;;0.10;;
39362;SDS011;25088;43.238;23.110;2023-04-03T15:49:35;0.10;;;0.10;;
39362;SDS011;25088;43.238;23.110;2023-04-03T15:52:01;0.10;;;0.10;;
39362;SDS011;25088;43.238;23.110;2023-04-03T15:54:27;0.10;;;0.10;;
39362;SDS011;25088;43.238;23.110;2023-04-03T15:56:54;0.10;;;0.10;;
39362;SDS011;25088;43.238;23.110;2023-04-03T15:59:20;0.10;;;0.10;;
39362;SDS011;25088;43.238;23.110;2023-04-03T16:01:46;0.10;;;0.10;;
39362;SDS011;25088;43.238;23.110;2023-04-03T16:04:11;0.10;;;0.10;;
39362;SDS011;25088;43.238;23.110;2023-04-03T16:06:37;0.10;;;0.10;;
39362;SDS011;25088;43.238;23.110;2023-04-03T16:09:03;0.10;;;0.10;;
39362;SDS011;25088;43.238;23.110;2023-04-03T16:11:29;0.10;;;0.10;;
39362;SDS011;25088;43.238;23.110;2023-04-03T16:13:55;0.10;;;0.10;;
39362;SDS011;25088;43.238;23.110;2023-04-03T16:16:21;0.10;;;0.10;;
39362;SDS011;25088;43.238;23.110;2023-04-03T16:18:47;0.10;;;0.10;;
39362;SDS011;25088;43.238;23.110;2023-04-03T16:21:13;0.10;;;0.10;;
39362;SDS011;25088;43.238;23.110;2023-04-03T16:23:40;0.10;;;0.10;;
39362;SDS011;25088;43.238;23.110;2023-04-03T16:26:06;0.10;;;0.10;;